Time;durP1;ratioP1;P1;durP2;ratioP2;P2;SDS_P1;SDS_P2;PMS_P1;PMS_P2;Temp;Humidity;BMP_temperature;BMP_pressure;BME280_temperature;BME280_humidity;BME280_pressure;Samples;Min_cycle;Max_cycle;Signal;HPM_P1;HPM_P2
2022/09/30 00:00:30;;;;;;;10.10;8.37;;;12.50;99.90;;;;;;5026124;28;20931;-71
2022/09/30 00:02:55;;;;;;;12.40;8.77;;;12.50;99.90;;;;;;5027131;28;20202;-70
2022/09/30 00:05:21;;;;;;;10.23;8.60;;;12.50;99.90;;;;;;5022210;28;20203;-70
2022/09/30 00:07:46;;;;;;;9.73;8.17;;;12.50;99.90;;;;;;5020716;28;20184;-70
2022/09/30 00:10:13;;;;;;;9.83;8.83;;;12.50;99.90;;;;;;5022375;28;20192;-70
2022/09/30 00:12:39;;;;;;;8.87;8.00;;;12.50;99.90;;;;;;5017387;28;21603;-70
2022/09/30 00:15:05;;;;;;;10.40;9.30;;;12.50;99.90;;;;;;5019396;28;20485;-70
2022/09/30 00:17:31;;;;;;;8.80;7.90;;;12.50;99.90;;;;;;5026571;28;20639;-69
2022/09/30 00:19:56;;;;;;;11.40;7.23;;;12.50;99.90;;;;;;5022157;28;20514;-70
2022/09/30 00:22:22;;;;;;;10.97;8.50;;;12.50;99.90;;;;;;5026110;28;20677;-70
2022/09/30 00:24:47;;;;;;;10.30;8.27;;;12.50;99.90;;;;;;5030197;28;20188;-70
2022/09/30 00:27:17;;;;;;;11.80;8.43;;;12.50;99.90;;;;;;5017102;28;20207;-70
2022/09/30 00:29:43;;;;;;;11.50;8.13;;;12.60;99.90;;;;;;5025034;28;20280;-69
2022/09/30 00:32:08;;;;;;;9.63;8.30;;;12.50;99.90;;;;;;5026947;28;20469;-69
2022/09/30 00:34:34;;;;;;;10.50;8.30;;;12.60;99.90;;;;;;5027469;28;20435;-69
2022/09/30 00:37:01;;;;;;;13.30;10.33;;;12.60;99.90;;;;;;5022284;28;20188;-70
2022/09/30 00:39:28;;;;;;;12.10;9.53;;;12.60;99.90;;;;;;5022061;28;20187;-69
2022/09/30 00:41:59;;;;;;;11.57;9.60;;;12.60;99.90;;;;;;5019980;28;20463;-69
2022/09/30 00:44:51;;;;;;;12.97;9.13;;;12.50;99.90;;;;;;5025613;28;20540;-69
2022/09/30 00:47:37;;;;;;;14.13;9.20;;;12.60;99.90;;;;;;5024139;28;20473;-69
2022/09/30 00:50:33;;;;;;;14.07;10.30;;;12.50;99.90;;;;;;5020226;28;20430;-69
2022/09/30 00:53:15;;;;;;;12.37;10.30;;;12.50;99.90;;;;;;5014273;28;20558;-69
2022/09/30 00:55:47;;;;;;;11.60;8.40;;;12.50;99.90;;;;;;5024972;28;20434;-69
2022/09/30 00:58:19;;;;;;;9.57;8.57;;;12.50;99.90;;;;;;5019521;28;21038;-69
2022/09/30 01:00:45;;;;;;;12.53;9.37;;;12.50;99.90;;;;;;5023347;28;20916;-69
2022/09/30 01:03:10;;;;;;;10.23;9.20;;;12.50;99.90;;;;;;5018629;28;20493;-69
2022/09/30 01:05:39;;;;;;;9.90;8.90;;;12.50;99.90;;;;;;5030748;28;20490;-69
2022/09/30 01:08:07;;;;;;;11.40;9.47;;;12.50;99.90;;;;;;5020531;28;20678;-69
2022/09/30 01:10:32;;;;;;;12.33;9.53;;;12.50;99.90;;;;;;5023175;28;20902;-69
2022/09/30 01:12:59;;;;;;;10.73;9.47;;;12.50;99.90;;;;;;5022173;28;20467;-69
2022/09/30 01:15:48;;;;;;;12.83;9.80;;;12.40;99.90;;;;;;5025124;28;20177;-69
2022/09/30 01:18:36;;;;;;;10.43;9.33;;;12.50;99.90;;;;;;5017841;28;20462;-69
2022/09/30 01:21:26;;;;;;;12.70;9.63;;;12.50;99.90;;;;;;5022360;28;20435;-70
2022/09/30 01:23:51;;;;;;;10.83;9.20;;;12.50;99.90;;;;;;5027012;28;20805;-69
2022/09/30 01:26:37;;;;;;;11.20;9.80;;;12.50;99.90;;;;;;5028532;28;20431;-70
2022/09/30 01:29:35;;;;;;;12.50;9.07;;;12.40;99.90;;;;;;5026359;28;20270;-69
2022/09/30 01:32:22;;;;;;;9.37;8.37;;;12.40;99.90;;;;;;5025154;28;20836;-69
2022/09/30 01:35:05;;;;;;;13.27;9.90;;;12.40;99.90;;;;;;5020264;28;20438;-69
2022/09/30 01:37:46;;;;;;;14.47;10.60;;;12.40;99.90;;;;;;5022317;28;20445;-70
2022/09/30 01:40:52;;;;;;;11.10;9.43;;;12.40;99.90;;;;;;5027579;28;20469;-69
2022/09/30 01:43:30;;;;;;;13.47;10.27;;;12.40;99.90;;;;;;5028950;28;20461;-70
2022/09/30 01:46:04;;;;;;;14.53;10.87;;;12.40;99.90;;;;;;5028346;28;20465;-69
2022/09/30 01:48:50;;;;;;;14.23;11.60;;;12.40;99.90;;;;;;5028453;28;20447;-70
2022/09/30 01:51:22;;;;;;;16.07;11.37;;;12.40;99.90;;;;;;5024073;28;20481;-70
2022/09/30 01:54:03;;;;;;;13.83;11.83;;;12.50;99.90;;;;;;5026137;28;20492;-70
2022/09/30 01:56:34;;;;;;;14.83;12.07;;;12.50;99.90;;;;;;5028815;28;20422;-70
2022/09/30 01:59:14;;;;;;;13.00;11.60;;;12.40;99.90;;;;;;5025829;28;20987;-70
2022/09/30 02:01:53;;;;;;;16.70;11.70;;;12.50;99.90;;;;;;5032659;28;20472;-70
2022/09/30 02:04:25;;;;;;;14.80;11.10;;;12.50;99.90;;;;;;5018991;28;20469;-70
2022/09/30 02:06:57;;;;;;;15.33;11.33;;;12.50;99.90;;;;;;5029991;28;20426;-71
2022/09/30 02:09:34;;;;;;;15.77;11.47;;;12.50;99.90;;;;;;5029075;28;20466;-70
2022/09/30 02:12:05;;;;;;;21.33;12.33;;;12.50;99.90;;;;;;5024087;28;20465;-71
2022/09/30 02:14:44;;;;;;;14.20;11.47;;;12.50;99.90;;;;;;5024497;28;20440;-70
2022/09/30 02:17:18;;;;;;;15.07;11.70;;;12.50;99.90;;;;;;5028678;28;20434;-71
2022/09/30 02:19:52;;;;;;;14.80;11.50;;;12.50;99.90;;;;;;5022157;28;20449;-70
2022/09/30 02:22:24;;;;;;;14.13;10.33;;;12.50;99.90;;;;;;5017252;28;20504;-70
2022/09/30 02:24:56;;;;;;;14.90;11.10;;;12.50;99.90;;;;;;5031161;28;20437;-70
2022/09/30 02:27:28;;;;;;;17.70;11.33;;;12.50;99.90;;;;;;5023609;28;20438;-70
2022/09/30 02:29:57;;;;;;;14.57;10.67;;;12.50;99.90;;;;;;5022054;28;20455;-71
2022/09/30 02:32:47;;;;;;;14.37;11.83;;;12.50;99.90;;;;;;5021043;28;20463;-70
2022/09/30 02:35:22;;;;;;;15.47;10.93;;;12.50;99.90;;;;;;5028227;28;20430;-71
2022/09/30 02:37:52;;;;;;;14.63;11.90;;;12.50;99.90;;;;;;5026194;28;20439;-71
2022/09/30 02:40:27;;;;;;;15.00;12.27;;;12.40;99.90;;;;;;5024853;28;20439;-70
2022/09/30 02:42:52;;;;;;;12.70;10.90;;;12.50;99.90;;;;;;5025421;28;20460;-69
2022/09/30 02:45:21;;;;;;;14.50;12.13;;;12.40;99.90;;;;;;5029890;28;20447;-69
2022/09/30 02:48:23;;;;;;;13.33;11.17;;;12.40;99.90;;;;;;5030211;28;20175;-70
2022/09/30 02:51:05;;;;;;;15.70;12.43;;;12.40;99.90;;;;;;5026983;28;21065;-70
2022/09/30 02:53:56;;;;;;;12.57;11.03;;;12.40;99.90;;;;;;5022873;28;20470;-69
2022/09/30 02:57:00;;;;;;;16.23;11.47;;;12.40;99.90;;;;;;5022513;28;21216;-70
2022/09/30 02:59:26;;;;;;;13.30;11.17;;;12.40;99.90;;;;;;5026484;28;20437;-70
2022/09/30 03:01:52;;;;;;;13.73;11.60;;;12.30;99.90;;;;;;5022473;28;20459;-69
2022/09/30 03:04:21;;;;;;;14.40;11.67;;;12.30;99.90;;;;;;5025236;28;20435;-70
2022/09/30 03:06:47;;;;;;;15.17;11.90;;;12.30;99.90;;;;;;5028521;28;20220;-70
2022/09/30 03:09:13;;;;;;;15.17;12.00;;;12.30;99.90;;;;;;5026387;28;20467;-70
2022/09/30 03:11:39;;;;;;;14.50;11.53;;;12.30;99.90;;;;;;5023762;28;20196;-70
2022/09/30 03:14:27;;;;;;;17.37;12.30;;;12.30;99.90;;;;;;5024926;28;20478;-70
2022/09/30 03:17:20;;;;;;;15.00;10.63;;;12.30;99.90;;;;;;5025601;28;20424;-70
2022/09/30 03:20:05;;;;;;;13.80;10.93;;;12.30;99.90;;;;;;5027970;28;20430;-70
2022/09/30 03:23:18;;;;;;;13.80;10.70;;;12.20;99.90;;;;;;5024893;28;20451;-69
2022/09/30 03:25:59;;;;;;;14.10;10.80;;;12.20;99.90;;;;;;5020702;28;20534;-69
2022/09/30 03:29:18;;;;;;;13.60;10.17;;;12.20;99.90;;;;;;5025512;28;20454;-69
2022/09/30 03:31:51;;;;;;;12.20;10.27;;;12.20;99.90;;;;;;5004268;28;20474;-69
2022/09/30 03:34:33;;;;;;;14.50;11.40;;;12.10;99.90;;;;;;5001184;28;20455;-69
2022/09/30 03:37:14;;;;;;;16.50;11.00;;;12.10;99.90;;;;;;5018276;28;21114;-70
2022/09/30 03:39:50;;;;;;;13.60;10.53;;;12.10;99.90;;;;;;5021733;28;21050;-69
2022/09/30 03:42:25;;;;;;;12.93;10.50;;;12.10;99.90;;;;;;5021238;28;20458;-69
2022/09/30 03:45:26;;;;;;;13.47;10.93;;;12.10;99.90;;;;;;5024294;28;20492;-69
2022/09/30 03:47:57;;;;;;;14.00;11.60;;;12.10;99.90;;;;;;5023702;28;20467;-70
2022/09/30 03:50:24;;;;;;;14.10;11.13;;;12.20;99.90;;;;;;5024121;28;20458;-70
2022/09/30 03:52:51;;;;;;;14.90;10.77;;;12.20;99.90;;;;;;5023723;28;20466;-69
2022/09/30 03:55:18;;;;;;;13.53;10.70;;;12.20;99.90;;;;;;5027241;28;20434;-70
2022/09/30 03:57:44;;;;;;;13.57;10.53;;;12.20;99.90;;;;;;5029062;28;21005;-71
2022/09/30 04:00:11;;;;;;;16.17;11.60;;;12.20;99.90;;;;;;5022603;28;20439;-71
2022/09/30 04:02:37;;;;;;;13.00;10.03;;;12.20;99.90;;;;;;5024928;28;20219;-69
2022/09/30 04:05:04;;;;;;;13.43;11.47;;;12.20;99.90;;;;;;5020678;28;20457;-69
2022/09/30 04:07:30;;;;;;;13.77;10.57;;;12.20;99.90;;;;;;5024238;28;20195;-69
2022/09/30 04:09:56;;;;;;;15.30;12.10;;;12.20;99.90;;;;;;5023032;28;20444;-71
2022/09/30 04:12:21;;;;;;;14.70;11.50;;;12.20;99.90;;;;;;5022505;28;21249;-70
2022/09/30 04:14:47;;;;;;;15.10;11.70;;;12.20;99.90;;;;;;5019631;28;20266;-71
2022/09/30 04:17:13;;;;;;;17.17;12.90;;;12.20;99.90;;;;;;5026466;28;22317;-71
2022/09/30 04:19:39;;;;;;;16.87;13.20;;;12.20;99.90;;;;;;5020396;28;20184;-69
2022/09/30 04:22:08;;;;;;;16.47;12.73;;;12.20;99.90;;;;;;5026294;28;20650;-70
2022/09/30 04:24:38;;;;;;;16.70;12.10;;;12.20;99.90;;;;;;5020260;28;20567;-69
2022/09/30 04:27:03;;;;;;;18.40;13.47;;;12.20;99.90;;;;;;5032908;28;20420;-69
2022/09/30 04:29:29;;;;;;;20.30;13.73;;;12.20;99.90;;;;;;5025934;28;20847;-69
2022/09/30 04:31:55;;;;;;;19.07;13.50;;;12.30;99.90;;;;;;5029963;28;20222;-70
2022/09/30 04:34:21;;;;;;;20.40;14.40;;;12.30;99.90;;;;;;5022275;28;20219;-70
2022/09/30 04:36:47;;;;;;;19.77;13.83;;;12.30;99.90;;;;;;5019490;28;21003;-72
2022/09/30 04:39:12;;;;;;;20.50;13.90;;;12.20;99.90;;;;;;5024748;28;20689;-70
2022/09/30 04:41:39;;;;;;;22.63;14.67;;;12.20;99.90;;;;;;5028983;28;20246;-70
2022/09/30 04:44:05;;;;;;;28.13;14.73;;;12.20;99.90;;;;;;5021849;28;20220;-70
2022/09/30 04:46:33;;;;;;;24.63;13.13;;;12.20;99.90;;;;;;5029564;28;20439;-69
2022/09/30 04:48:59;;;;;;;18.37;12.27;;;12.30;99.90;;;;;;5026855;28;20501;-67
2022/09/30 04:51:26;;;;;;;20.53;14.23;;;12.30;99.90;;;;;;5023165;28;21439;-69
2022/09/30 04:53:51;;;;;;;23.17;14.30;;;12.20;99.90;;;;;;5026609;28;20474;-69
2022/09/30 04:56:18;;;;;;;24.00;14.90;;;12.30;99.90;;;;;;5023571;28;20439;-69
2022/09/30 04:58:43;;;;;;;19.87;12.37;;;12.30;99.90;;;;;;5021604;28;20272;-70
2022/09/30 05:01:12;;;;;;;19.40;13.93;;;12.30;99.90;;;;;;5023954;28;20521;-70
2022/09/30 05:03:38;;;;;;;18.47;12.60;;;12.30;99.90;;;;;;5023088;28;20235;-70
2022/09/30 05:06:05;;;;;;;19.70;12.20;;;12.30;99.90;;;;;;5023791;28;20438;-70
2022/09/30 05:08:33;;;;;;;15.83;11.77;;;12.30;99.90;;;;;;5025218;28;20469;-69
2022/09/30 05:11:01;;;;;;;17.00;10.57;;;12.30;99.90;;;;;;5026456;28;20500;-70
2022/09/30 05:13:34;;;;;;;17.83;11.33;;;12.30;99.90;;;;;;5027805;28;20581;-69
2022/09/30 05:16:00;;;;;;;15.10;9.70;;;12.30;99.90;;;;;;5027951;28;20904;-70
2022/09/30 05:18:27;;;;;;;16.67;10.33;;;12.30;99.90;;;;;;5033543;28;20431;-71
2022/09/30 05:20:53;;;;;;;21.53;10.63;;;12.20;99.90;;;;;;5027131;28;20442;-70
2022/09/30 05:23:20;;;;;;;16.70;10.53;;;12.20;99.90;;;;;;5031884;28;20461;-71
2022/09/30 05:25:46;;;;;;;15.47;10.33;;;12.20;99.90;;;;;;5025286;28;20447;-70
2022/09/30 05:28:13;;;;;;;16.30;10.33;;;12.20;99.90;;;;;;5029422;28;20440;-71
2022/09/30 05:30:40;;;;;;;18.50;12.23;;;12.10;99.90;;;;;;5030580;28;20493;-71
2022/09/30 05:33:06;;;;;;;19.57;10.70;;;12.20;99.90;;;;;;5027482;28;20467;-70
2022/09/30 05:35:32;;;;;;;16.20;11.20;;;12.10;99.90;;;;;;5025135;28;20449;-70
2022/09/30 05:37:59;;;;;;;17.20;10.67;;;12.20;99.90;;;;;;5018396;28;20357;-70
2022/09/30 05:40:25;;;;;;;16.17;11.10;;;12.10;99.90;;;;;;5030236;28;20191;-70
2022/09/30 05:42:51;;;;;;;17.40;11.50;;;12.10;99.90;;;;;;5033849;28;20477;-70
2022/09/30 05:45:16;;;;;;;16.10;10.37;;;12.10;99.90;;;;;;5027112;28;20446;-71
2022/09/30 05:47:42;;;;;;;13.53;9.83;;;12.10;99.90;;;;;;5022550;28;20668;-70
2022/09/30 05:50:08;;;;;;;14.77;11.30;;;12.10;99.90;;;;;;5024121;28;20193;-70
2022/09/30 05:52:33;;;;;;;15.37;10.37;;;12.00;99.90;;;;;;5031409;28;20315;-70
2022/09/30 05:55:00;;;;;;;15.90;11.30;;;12.00;99.90;;;;;;5031075;28;20191;-70
2022/09/30 05:57:27;;;;;;;17.20;11.30;;;12.00;99.90;;;;;;5016149;28;20185;-70
2022/09/30 05:59:54;;;;;;;13.10;9.73;;;12.00;99.90;;;;;;5024854;28;20561;-69
2022/09/30 06:02:22;;;;;;;13.67;10.40;;;12.00;99.90;;;;;;5023322;28;20469;-71
2022/09/30 06:04:49;;;;;;;12.03;9.00;;;12.00;99.90;;;;;;5021844;28;20854;-70
2022/09/30 06:07:15;;;;;;;14.70;9.37;;;12.00;99.90;;;;;;5024692;28;20488;-69
2022/09/30 06:09:40;;;;;;;13.67;9.80;;;12.00;99.90;;;;;;5022640;28;20852;-71
2022/09/30 06:12:07;;;;;;;13.50;10.70;;;12.00;99.90;;;;;;5026270;28;20199;-72
2022/09/30 06:14:32;;;;;;;12.53;9.33;;;12.00;99.90;;;;;;5022667;28;20254;-71
2022/09/30 06:17:01;;;;;;;13.47;9.87;;;12.00;99.90;;;;;;5027852;28;20423;-71
2022/09/30 06:19:29;;;;;;;12.67;9.07;;;12.00;99.90;;;;;;5027028;28;20192;-72
2022/09/30 06:21:55;;;;;;;11.70;8.70;;;12.00;99.90;;;;;;5021247;28;20478;-73
2022/09/30 06:24:20;;;;;;;14.37;10.50;;;12.00;99.90;;;;;;5017932;28;20540;-71
2022/09/30 06:26:46;;;;;;;14.80;9.30;;;12.00;99.90;;;;;;5023872;28;20444;-71
2022/09/30 06:29:12;;;;;;;14.20;10.50;;;12.10;99.90;;;;;;5026567;28;20188;-70
2022/09/30 06:31:37;;;;;;;12.77;9.90;;;12.10;99.90;;;;;;5024688;28;20618;-69
2022/09/30 06:34:04;;;;;;;13.43;10.10;;;12.10;99.90;;;;;;5025219;28;20467;-69
2022/09/30 06:36:32;;;;;;;12.90;9.30;;;12.10;99.90;;;;;;5021712;28;20227;-69
2022/09/30 06:39:01;;;;;;;15.90;10.70;;;12.20;99.90;;;;;;5023786;28;20439;-70
2022/09/30 06:41:27;;;;;;;17.73;12.30;;;12.20;99.90;;;;;;5028986;28;20837;-69
2022/09/30 06:43:53;;;;;;;14.27;10.33;;;12.20;99.90;;;;;;5027618;28;20443;-68
2022/09/30 06:46:22;;;;;;;13.47;10.50;;;12.20;99.90;;;;;;5017482;28;20447;-69
2022/09/30 06:48:56;;;;;;;15.47;10.50;;;12.30;99.90;;;;;;5016963;28;20450;-70
2022/09/30 06:51:25;;;;;;;14.53;9.53;;;12.30;99.90;;;;;;5020951;28;20439;-71
2022/09/30 06:53:52;;;;;;;12.70;10.20;;;12.30;99.90;;;;;;5018538;28;20472;-70
2022/09/30 06:56:18;;;;;;;12.87;9.47;;;12.40;99.90;;;;;;5014495;28;20435;-68
2022/09/30 06:58:45;;;;;;;12.43;10.00;;;12.40;99.90;;;;;;5022228;28;20439;-68
2022/09/30 07:01:14;;;;;;;12.47;9.30;;;12.50;99.90;;;;;;5026459;28;20825;-69
2022/09/30 07:03:43;;;;;;;11.77;9.87;;;12.50;99.90;;;;;;5023753;28;20734;-68
2022/09/30 07:06:09;;;;;;;12.83;10.10;;;12.60;99.90;;;;;;5020127;28;20433;-68
2022/09/30 07:08:36;;;;;;;11.23;9.20;;;12.60;99.90;;;;;;5020324;28;20437;-68
2022/09/30 07:11:10;;;;;;;11.17;9.50;;;12.60;99.90;;;;;;5021968;28;20803;-68
2022/09/30 07:13:36;;;;;;;14.30;8.77;;;12.70;99.90;;;;;;5027600;28;20498;-67
2022/09/30 07:16:02;;;;;;;10.87;9.13;;;12.70;99.90;;;;;;5024340;28;21531;-68
2022/09/30 07:18:27;;;;;;;10.30;8.40;;;12.70;99.90;;;;;;5023320;28;20551;-70
2022/09/30 07:20:55;;;;;;;8.90;8.00;;;12.80;99.90;;;;;;5026060;28;20195;-69
2022/09/30 07:23:21;;;;;;;15.70;10.37;;;12.80;99.90;;;;;;5023672;28;20916;-69
2022/09/30 07:25:53;;;;;;;10.33;9.23;;;12.90;99.90;;;;;;5021548;28;20447;-71
2022/09/30 07:28:19;;;;;;;13.47;11.37;;;13.00;99.90;;;;;;5020637;28;20435;-71
2022/09/30 07:30:44;;;;;;;15.33;11.10;;;13.10;99.90;;;;;;5021726;28;20525;-72
2022/09/30 07:33:15;;;;;;;11.33;9.53;;;13.20;99.90;;;;;;5021804;28;20476;-69
2022/09/30 07:35:49;;;;;;;13.90;9.83;;;13.20;99.90;;;;;;5015593;28;20509;-69
2022/09/30 07:38:16;;;;;;;13.53;9.97;;;13.30;99.90;;;;;;5014089;28;20443;-70
2022/09/30 07:40:49;;;;;;;9.77;8.77;;;13.50;99.90;;;;;;5024046;28;20509;-70
2022/09/30 07:43:17;;;;;;;11.40;9.40;;;13.60;99.90;;;;;;5028236;28;20470;-70
2022/09/30 07:45:43;;;;;;;10.67;9.20;;;13.70;99.90;;;;;;5028632;28;20442;-71
2022/09/30 07:48:38;;;;;;;10.57;8.00;;;13.80;99.90;;;;;;5021660;28;20480;-70
2022/09/30 07:50:55;;;;;;;10.27;9.20;;;14.00;99.90;;;;;;5027007;28;20565;-69
2022/09/30 07:53:20;;;;;;;14.13;9.70;;;14.10;99.90;;;;;;5017403;28;20466;-69
2022/09/30 07:55:46;;;;;;;13.10;8.70;;;14.20;99.90;;;;;;5024609;28;20884;-69
2022/09/30 07:58:12;;;;;;;12.30;8.87;;;14.30;99.90;;;;;;5021583;28;20184;-69
2022/09/30 08:00:37;;;;;;;9.03;8.13;;;14.40;99.90;;;;;;5024766;28;20302;-68
2022/09/30 08:03:03;;;;;;;12.10;9.87;;;14.50;99.90;;;;;;5019880;28;20211;-68
2022/09/30 08:05:29;;;;;;;10.17;8.50;;;14.60;99.90;;;;;;5025235;28;20250;-68
2022/09/30 08:07:54;;;;;;;11.67;9.23;;;14.70;99.90;;;;;;5019706;28;20196;-69
2022/09/30 08:10:20;;;;;;;11.50;8.90;;;14.70;99.90;;;;;;5023290;28;20192;-70
2022/09/30 08:12:45;;;;;;;10.77;9.63;;;14.70;99.90;;;;;;5023550;28;20299;-68
2022/09/30 08:15:11;;;;;;;12.77;10.80;;;14.80;99.90;;;;;;5020386;28;20184;-69
2022/09/30 08:17:36;;;;;;;11.63;10.37;;;14.70;99.90;;;;;;5023012;28;20627;-68
2022/09/30 08:20:03;;;;;;;11.10;9.50;;;14.70;99.90;;;;;;5020399;28;20189;-69
2022/09/30 08:22:28;;;;;;;10.90;9.80;;;14.70;99.90;;;;;;5017064;28;20204;-69
2022/09/30 08:24:54;;;;;;;13.47;11.00;;;14.70;99.90;;;;;;5019453;28;20929;-68
2022/09/30 08:27:20;;;;;;;12.23;10.97;;;14.70;99.90;;;;;;5029486;28;20192;-68
2022/09/30 08:29:45;;;;;;;10.70;9.60;;;14.70;99.90;;;;;;5025931;28;20189;-68
2022/09/30 08:32:11;;;;;;;13.87;11.07;;;14.70;99.90;;;;;;5023497;28;20466;-68
2022/09/30 08:34:37;;;;;;;18.17;11.80;;;14.70;99.90;;;;;;5020988;28;20188;-69
2022/09/30 08:37:03;;;;;;;11.77;10.67;;;14.70;99.90;;;;;;5022096;28;20275;-68
2022/09/30 08:39:29;;;;;;;11.97;10.70;;;14.70;99.90;;;;;;5023870;28;20619;-69
2022/09/30 08:42:09;;;;;;;15.63;11.10;;;14.70;99.90;;;;;;5021046;28;20450;-68
2022/09/30 08:44:45;;;;;;;18.23;11.80;;;14.70;99.90;;;;;;5023583;28;20273;-71
2022/09/30 08:47:22;;;;;;;14.43;11.37;;;14.70;99.90;;;;;;5024523;28;20491;-69
2022/09/30 08:49:54;;;;;;;12.37;11.17;;;14.80;99.90;;;;;;5024742;28;20443;-69
2022/09/30 08:52:25;;;;;;;12.63;11.30;;;14.70;99.90;;;;;;5023559;28;20895;-68
2022/09/30 08:54:54;;;;;;;14.93;11.40;;;14.80;99.90;;;;;;5023233;28;20471;-69
2022/09/30 08:57:20;;;;;;;15.67;12.50;;;14.80;99.90;;;;;;5022393;28;20437;-70
2022/09/30 08:59:48;;;;;;;13.73;12.23;;;14.80;99.90;;;;;;5020641;28;21822;-70
2022/09/30 09:02:20;;;;;;;13.13;10.70;;;14.50;99.90;;;;;;5024539;28;20453;-70
2022/09/30 09:04:48;;;;;;;13.73;12.43;;;14.50;99.90;;;;;;5024578;28;20471;-71
2022/09/30 09:07:32;;;;;;;11.83;10.23;;;14.50;99.90;;;;;;5022205;28;20470;-71
2022/09/30 09:10:07;;;;;;;14.23;11.73;;;14.50;99.90;;;;;;5023432;28;21036;-70
2022/09/30 09:12:51;;;;;;;14.43;10.83;;;14.60;99.90;;;;;;5020588;28;20557;-71
2022/09/30 09:15:23;;;;;;;11.83;10.63;;;14.60;99.90;;;;;;5018396;28;21017;-71
2022/09/30 09:18:13;;;;;;;13.40;9.57;;;14.60;99.90;;;;;;5020750;28;20427;-69
2022/09/30 09:20:48;;;;;;;11.50;10.40;;;14.70;99.90;;;;;;5025425;28;20785;-69
2022/09/30 09:23:13;;;;;;;13.53;12.10;;;14.70;99.90;;;;;;5024126;28;20555;-69
2022/09/30 09:25:45;;;;;;;12.80;10.30;;;14.80;99.90;;;;;;5027679;28;20474;-69
2022/09/30 09:28:55;;;;;;;11.93;10.70;;;14.90;99.90;;;;;;5010423;28;20276;-69
2022/09/30 09:31:21;;;;;;;13.43;10.80;;;15.10;99.90;;;;;;5020600;28;20443;-70
2022/09/30 09:33:46;;;;;;;12.70;11.50;;;15.10;99.90;;;;;;5025930;28;20755;-68
2022/09/30 09:36:30;;;;;;;11.83;10.63;;;15.20;99.90;;;;;;5012584;28;20216;-69
2022/09/30 09:39:33;;;;;;;13.27;11.93;;;15.30;99.90;;;;;;5024467;28;20192;-71
2022/09/30 09:42:32;;;;;;;12.97;11.57;;;15.30;99.90;;;;;;5019083;28;20459;-72
2022/09/30 09:45:09;;;;;;;12.27;11.07;;;15.50;99.90;;;;;;5032687;28;20430;-71
2022/09/30 09:47:35;;;;;;;13.13;11.83;;;15.50;99.90;;;;;;5019803;28;20493;-70
2022/09/30 09:50:03;;;;;;;12.90;11.60;;;15.60;99.90;;;;;;5022792;28;20443;-70
2022/09/30 09:52:28;;;;;;;12.50;10.43;;;15.70;99.90;;;;;;5014913;28;20701;-70
2022/09/30 09:54:57;;;;;;;12.50;11.23;;;15.80;99.90;;;;;;5020265;28;20522;-70
2022/09/30 09:57:28;;;;;;;13.67;11.87;;;15.80;99.90;;;;;;5017568;28;20668;-70
2022/09/30 09:59:57;;;;;;;12.00;10.70;;;15.80;99.90;;;;;;5027767;28;20475;-66
2022/09/30 10:02:29;;;;;;;13.00;11.37;;;15.80;99.90;;;;;;5022549;28;20464;-67
2022/09/30 10:05:02;;;;;;;14.80;11.60;;;15.80;99.90;;;;;;5019630;28;20424;-69
2022/09/30 10:07:32;;;;;;;12.00;10.73;;;15.70;99.90;;;;;;5026757;28;20542;-69
2022/09/30 10:10:11;;;;;;;14.50;11.87;;;15.70;99.90;;;;;;5017187;28;20522;-69
2022/09/30 10:12:37;;;;;;;13.40;11.83;;;15.60;99.90;;;;;;5023647;28;20474;-69
2022/09/30 10:15:20;;;;;;;14.13;12.20;;;15.60;99.90;;;;;;5020951;28;20457;-69
2022/09/30 10:17:54;;;;;;;12.03;10.90;;;15.60;99.90;;;;;;5028800;28;20190;-67
2022/09/30 10:20:31;;;;;;;15.43;10.80;;;15.50;99.90;;;;;;5010194;28;20441;-68
2022/09/30 10:23:27;;;;;;;17.03;12.77;;;15.50;99.90;;;;;;5025081;28;20559;-67
2022/09/30 10:26:05;;;;;;;12.90;11.30;;;15.50;99.90;;;;;;5014521;28;20443;-69
2022/09/30 10:28:42;;;;;;;14.07;12.07;;;15.50;99.90;;;;;;5024293;28;20446;-69
2022/09/30 10:31:14;;;;;;;14.30;11.57;;;15.50;99.90;;;;;;5015484;28;20453;-67
2022/09/30 10:33:47;;;;;;;16.73;12.03;;;15.60;99.90;;;;;;5030262;28;20454;-69
2022/09/30 10:36:20;;;;;;;12.73;10.80;;;15.70;99.90;;;;;;5024616;28;20585;-69
2022/09/30 10:39:07;;;;;;;11.70;10.50;;;15.80;99.90;;;;;;5027787;28;20845;-67
2022/09/30 10:41:35;;;;;;;11.80;9.17;;;15.90;99.90;;;;;;5030811;28;20442;-68
2022/09/30 10:44:12;;;;;;;12.60;10.90;;;16.00;99.90;;;;;;5035442;28;20467;-68
2022/09/30 10:46:40;;;;;;;13.20;10.53;;;16.20;99.90;;;;;;5024428;28;20885;-68
2022/09/30 10:49:19;;;;;;;11.30;9.50;;;16.30;99.90;;;;;;5024208;28;20446;-69
2022/09/30 10:51:45;;;;;;;12.50;10.03;;;16.40;99.90;;;;;;5029201;28;20446;-68
2022/09/30 10:54:30;;;;;;;11.80;10.60;;;16.50;99.90;;;;;;5023343;28;20475;-68
2022/09/30 10:57:02;;;;;;;11.93;10.70;;;16.50;99.90;;;;;;5024531;28;20440;-67
2022/09/30 10:59:36;;;;;;;12.63;10.30;;;16.60;99.90;;;;;;5027638;28;20941;-67
2022/09/30 11:02:21;;;;;;;11.70;10.60;;;16.70;99.90;;;;;;5020291;28;20963;-68
2022/09/30 11:05:12;;;;;;;11.77;9.63;;;16.80;99.90;;;;;;5021097;28;20462;-67
2022/09/30 11:07:56;;;;;;;13.10;9.53;;;17.00;99.90;;;;;;5021116;28;20441;-69
2022/09/30 11:10:40;;;;;;;13.20;10.73;;;17.10;99.90;;;;;;5025354;28;20443;-68
2022/09/30 11:13:49;;;;;;;10.23;9.23;;;17.10;99.90;;;;;;5014774;28;21052;-68
2022/09/30 11:16:32;;;;;;;14.13;9.40;;;17.20;99.90;;;;;;5019900;28;20477;-68
2022/09/30 11:19:04;;;;;;;10.63;9.63;;;17.20;99.90;;;;;;5023807;28;20866;-68
2022/09/30 11:21:49;;;;;;;9.07;8.10;;;17.20;99.90;;;;;;5027604;28;20466;-67
2022/09/30 11:24:27;;;;;;;11.20;8.87;;;17.30;99.90;;;;;;5024653;28;20481;-68
2022/09/30 11:27:08;;;;;;;10.57;9.20;;;17.40;99.90;;;;;;5022782;28;21398;-68
2022/09/30 11:30:05;;;;;;;11.30;9.10;;;17.40;99.90;;;;;;5019472;28;20907;-68
2022/09/30 11:32:45;;;;;;;12.23;9.63;;;17.30;99.90;;;;;;5023440;28;20485;-68
2022/09/30 11:35:40;;;;;;;10.03;8.70;;;17.20;99.90;;;;;;5023326;28;20441;-69
2022/09/30 11:38:09;;;;;;;16.23;9.80;;;17.20;99.90;;;;;;5023443;28;20438;-68
2022/09/30 11:40:41;;;;;;;13.27;10.40;;;17.30;99.90;;;;;;5020862;28;20963;-68
2022/09/30 11:43:37;;;;;;;10.30;9.20;;;17.50;99.90;;;;;;5028622;28;20664;-68
2022/09/30 11:46:41;;;;;;;12.80;10.37;;;17.70;99.90;;;;;;5012723;28;20455;-68
2022/09/30 11:49:37;;;;;;;17.00;10.33;;;17.70;99.90;;;;;;5020243;28;20443;-68
2022/09/30 11:52:22;;;;;;;11.80;10.60;;;17.60;99.90;;;;;;5024109;28;20483;-68
2022/09/30 11:55:12;;;;;;;11.57;9.30;;;17.70;99.90;;;;;;5009853;28;20450;-68
2022/09/30 11:57:46;;;;;;;13.67;8.90;;;18.50;99.90;;;;;;5017731;28;20813;-68
2022/09/30 12:00:17;;;;;;;11.00;9.90;;;19.10;99.90;;;;;;5016727;28;20434;-68
2022/09/30 12:02:58;;;;;;;11.90;8.23;;;19.50;99.90;;;;;;5023930;28;21177;-69
2022/09/30 12:05:32;;;;;;;10.47;9.23;;;20.00;99.90;;;;;;5020062;28;20442;-69
2022/09/30 12:08:03;;;;;;;10.80;8.80;;;20.40;99.90;;;;;;5023750;28;20446;-69
2022/09/30 12:10:37;;;;;;;11.07;7.90;;;20.90;99.90;;;;;;5020780;28;20581;-69
2022/09/30 12:13:12;;;;;;;8.60;7.70;;;21.30;99.90;;;;;;5026194;28;20462;-69
2022/09/30 12:15:41;;;;;;;10.23;8.27;;;21.40;99.90;;;;;;5024892;28;20859;-69
2022/09/30 12:18:24;;;;;;;8.30;7.60;;;21.70;99.90;;;;;;5025003;28;20435;-69
2022/09/30 12:20:57;;;;;;;8.93;7.67;;;21.90;99.90;;;;;;5020450;28;21022;-69
2022/09/30 12:23:38;;;;;;;9.47;7.33;;;21.60;99.90;;;;;;5025075;28;20616;-68
2022/09/30 12:26:05;;;;;;;8.07;6.80;;;21.10;99.90;;;;;;5020087;28;20540;-69
2022/09/30 12:32:07;;;;;;;9.37;7.13;;;21.70;99.90;;;;;;5021382;28;20621;-67
2022/09/30 12:35:00;;;;;;;7.97;7.17;;;21.90;99.90;;;;;;5024002;28;20476;-66
2022/09/30 12:37:41;;;;;;;7.27;6.57;;;22.10;99.90;;;;;;5021060;28;20453;-68
2022/09/30 12:40:31;;;;;;;6.87;6.13;;;22.70;99.90;;;;;;5012918;28;20953;-67
2022/09/30 12:43:46;;;;;;;7.17;6.47;;;23.20;99.90;;;;;;5022624;28;20622;-68
2022/09/30 12:46:39;;;;;;;8.73;5.87;;;23.50;99.90;;;;;;5015392;28;21981;-68
2022/09/30 12:49:09;;;;;;;10.90;5.70;;;23.60;99.90;;;;;;5018406;28;20439;-70
2022/09/30 12:51:40;;;;;;;6.73;5.20;;;23.60;99.90;;;;;;5019656;28;20458;-71
2022/09/30 12:54:11;;;;;;;6.53;5.70;;;23.50;99.90;;;;;;5017193;28;20475;-71
2022/09/30 12:56:42;;;;;;;6.90;6.03;;;23.70;99.90;;;;;;5023535;28;20944;-66
2022/09/30 12:59:09;;;;;;;7.30;6.60;;;23.70;99.90;;;;;;5015617;28;20443;-67
2022/09/30 13:01:37;;;;;;;8.30;6.13;;;23.20;99.60;;;;;;5020010;28;21125;-67
2022/09/30 13:04:02;;;;;;;9.37;6.03;;;23.20;98.80;;;;;;5019968;28;20704;-67